createdAt,value
2022-08-05T00:01:36.511Z,9.70
2022-08-05T00:04:18.844Z,8.90
2022-08-05T00:06:47.569Z,9.10
2022-08-05T00:09:20.800Z,9.00
2022-08-05T00:11:55.608Z,9.00
2022-08-05T00:14:29.340Z,9.20
2022-08-05T00:17:01.832Z,8.60
2022-08-05T00:19:33.683Z,8.70
2022-08-05T00:22:11.209Z,11.20
2022-08-05T00:24:42.629Z,8.80
2022-08-05T00:27:13.995Z,8.90
2022-08-05T00:29:45.563Z,8.30
2022-08-05T00:32:15.345Z,9.30
2022-08-05T00:35:03.842Z,9.20
2022-08-05T00:37:53.547Z,9.50
2022-08-05T00:40:29.290Z,9.60
2022-08-05T00:43:01.996Z,9.90
2022-08-05T00:45:42.958Z,9.40
2022-08-05T00:48:31.197Z,9.70
2022-08-05T00:51:00.495Z,8.60
2022-08-05T00:54:01.456Z,9.20
2022-08-05T00:56:26.623Z,8.80
2022-08-05T00:58:56.222Z,9.60
2022-08-05T01:01:42.928Z,9.40
2022-08-05T01:04:15.859Z,9.10
2022-08-05T01:06:48.769Z,8.90
2022-08-05T01:11:56.322Z,9.70
2022-08-05T01:14:31.612Z,9.30
2022-08-05T01:17:32.145Z,9.30
2022-08-05T01:21:08.371Z,9.20
2022-08-05T01:24:13.079Z,9.60
2022-08-05T01:27:24.226Z,9.30
2022-08-05T01:29:58.772Z,9.70
2022-08-05T01:32:32.263Z,10.60
2022-08-05T01:35:53.316Z,9.80
2022-08-05T01:38:08.965Z,10.20
2022-08-05T01:40:55.985Z,9.50
2022-08-05T01:43:28.454Z,9.80
2022-08-05T01:46:07.242Z,9.40
2022-08-05T01:48:49.717Z,8.30
2022-08-05T01:51:19.275Z,9.40
2022-08-05T01:53:56.989Z,10.20
2022-08-05T01:58:11.071Z,9.40
2022-08-05T01:59:23.336Z,8.90
2022-08-05T02:01:55.601Z,9.10
2022-08-05T02:04:29.961Z,9.20
2022-08-05T02:06:59.493Z,8.30
2022-08-05T02:09:28.675Z,8.90
2022-08-05T02:12:07.116Z,9.10
2022-08-05T02:14:53.171Z,9.60
2022-08-05T02:18:30.888Z,8.80
2022-08-05T02:21:15.643Z,9.00
2022-08-05T02:23:50.562Z,9.50
2022-08-05T02:26:28.647Z,8.70
2022-08-05T02:28:58.643Z,8.30
2022-08-05T02:31:34.613Z,8.70
2022-08-05T02:34:15.823Z,9.60
2022-08-05T02:36:55.580Z,9.20
2022-08-05T02:39:28.124Z,9.90
2022-08-05T02:42:01.183Z,10.30
2022-08-05T02:44:34.537Z,9.20
2022-08-05T02:47:08.342Z,9.00
2022-08-05T02:49:42.508Z,9.50
2022-08-05T02:52:29.326Z,9.80
2022-08-05T02:55:05.531Z,9.10
2022-08-05T02:58:12.349Z,9.80
2022-08-05T03:00:29.618Z,9.40
2022-08-05T03:03:00.283Z,9.70
2022-08-05T03:06:53.761Z,10.10
2022-08-05T03:08:27.182Z,9.10
2022-08-05T03:11:45.939Z,8.90
2022-08-05T03:13:51.413Z,9.60
2022-08-05T03:16:31.969Z,8.70
2022-08-05T03:19:04.263Z,9.20
2022-08-05T03:21:48.761Z,9.40
2022-08-05T03:24:30.028Z,10.00
2022-08-05T03:27:01.156Z,10.20
2022-08-05T03:29:45.748Z,9.70
2022-08-05T03:32:20.457Z,9.10
2022-08-05T03:34:51.040Z,10.40
2022-08-05T03:37:22.987Z,11.10
2022-08-05T03:40:04.037Z,11.40
2022-08-05T03:42:51.474Z,9.20
2022-08-05T03:45:23.412Z,9.90
2022-08-05T03:47:56.836Z,10.60
2022-08-05T03:50:46.751Z,10.80
2022-08-05T03:55:52.226Z,11.20
2022-08-05T03:56:50.334Z,11.40
2022-08-05T03:59:47.388Z,11.10
2022-08-05T04:02:37.911Z,11.10
2022-08-05T04:05:12.905Z,10.30
2022-08-05T04:10:33.252Z,9.60
2022-08-05T04:13:08.662Z,10.90
2022-08-05T04:15:37.958Z,11.60
2022-08-05T04:18:25.779Z,11.10
2022-08-05T04:24:05.719Z,11.70
2022-08-05T04:26:19.049Z,12.10
2022-08-05T04:28:51.688Z,9.80
2022-08-05T04:31:21.348Z,11.00
2022-08-05T04:34:19.125Z,11.20
2022-08-05T04:36:49.626Z,10.60
2022-08-05T04:39:20.627Z,9.60
2022-08-05T04:41:52.427Z,9.40
2022-08-05T04:44:56.645Z,10.50
2022-08-05T04:47:25.733Z,11.20
2022-08-05T04:50:03.087Z,10.60
2022-08-05T04:53:15.509Z,11.40
2022-08-05T04:56:15.490Z,10.60
2022-08-05T05:18:36.292Z,9.00
2022-08-05T05:21:06.211Z,8.30
2022-08-05T05:23:39.537Z,8.10
2022-08-05T05:48:09.228Z,9.30
2022-08-05T07:44:14.391Z,7.40
2022-08-05T07:54:47.702Z,6.90
2022-08-05T08:26:17.558Z,7.60
2022-08-05T08:34:01.366Z,7.20
2022-08-05T08:36:48.803Z,7.10
2022-08-05T09:03:24.775Z,6.70
2022-08-05T09:10:11.902Z,6.00
2022-08-05T09:12:41.415Z,6.30
2022-08-05T09:15:11.480Z,6.60
2022-08-05T09:17:49.416Z,6.60
2022-08-05T09:20:36.467Z,5.90
2022-08-05T09:23:19.484Z,6.50
2022-08-05T09:26:20.512Z,6.40
2022-08-05T09:28:50.139Z,6.50
2022-08-05T09:31:44.125Z,6.10
2022-08-05T09:34:13.016Z,5.90
2022-08-05T09:36:56.317Z,6.50
2022-08-05T09:39:41.632Z,5.80
2022-08-05T09:42:24.389Z,5.50
2022-08-05T09:45:17.468Z,6.00
2022-08-05T09:47:57.685Z,5.20
2022-08-05T09:50:44.563Z,5.40
2022-08-05T09:53:26.044Z,5.70
2022-08-05T09:56:12.608Z,5.70
2022-08-05T09:58:42.387Z,5.50
2022-08-05T10:01:15.209Z,5.90
2022-08-05T10:04:10.243Z,6.00
2022-08-05T10:06:59.036Z,6.10
2022-08-05T10:09:29.581Z,5.70
2022-08-05T10:12:30.337Z,6.00
2022-08-05T10:15:20.980Z,5.40
2022-08-05T10:18:20.310Z,5.20
2022-08-05T10:20:56.985Z,5.30
2022-08-05T10:23:55.304Z,5.80
2022-08-05T10:28:48.241Z,5.30
2022-08-05T10:32:50.784Z,4.90
2022-08-05T10:34:08.893Z,5.20
2022-08-05T10:36:39.894Z,4.90
2022-08-05T10:39:24.502Z,5.30
2022-08-05T10:42:11.327Z,5.40
2022-08-05T10:44:46.552Z,5.60
2022-08-05T10:47:26.127Z,5.90
2022-08-05T10:50:33.238Z,5.60
2022-08-05T10:53:01.712Z,5.40
2022-08-05T10:55:38.531Z,5.50
2022-08-05T10:58:21.287Z,5.10
2022-08-05T11:00:55.294Z,5.30
2022-08-05T11:03:32.610Z,5.50
2022-08-05T11:06:15.974Z,5.30
2022-08-05T11:09:32.354Z,5.30
2022-08-05T11:12:41.225Z,5.90
2022-08-05T11:16:00.577Z,5.40
2022-08-05T11:18:34.655Z,5.10
2022-08-05T11:21:11.216Z,4.50
2022-08-05T11:28:23.267Z,4.40
2022-08-05T11:30:58.715Z,4.50
2022-08-05T11:34:09.278Z,4.40
2022-08-05T11:36:53.021Z,4.70
2022-08-05T11:40:00.766Z,4.70
2022-08-05T11:44:00.932Z,4.80
2022-08-05T11:46:30.915Z,5.10
2022-08-05T11:49:05.527Z,5.10
2022-08-05T11:51:43.594Z,5.10
2022-08-05T11:54:40.583Z,5.20
2022-08-05T12:05:17.939Z,4.40
2022-08-05T12:08:08.073Z,4.40
2022-08-05T12:11:48.161Z,4.10
2022-08-05T12:15:59.527Z,4.50
2022-08-05T12:21:47.254Z,4.40
2022-08-05T12:25:56.902Z,3.80
2022-08-05T12:29:37.968Z,4.00
2022-08-05T12:33:26.973Z,3.80
2022-08-05T12:37:42.653Z,4.10
2022-08-05T12:42:21.042Z,3.40
2022-08-05T12:44:50.201Z,3.80
2022-08-05T12:47:32.770Z,3.60
2022-08-05T12:52:18.778Z,3.80
2022-08-05T12:57:01.668Z,3.20
2022-08-05T13:02:01.081Z,3.90
2022-08-05T13:24:27.779Z,3.90
2022-08-05T13:27:10.909Z,3.60
2022-08-05T13:29:40.073Z,3.70
2022-08-05T13:32:35.119Z,3.80
2022-08-05T13:35:09.859Z,4.30
2022-08-05T13:37:38.501Z,3.60
2022-08-05T13:40:16.400Z,3.80
2022-08-05T13:42:49.045Z,3.80
2022-08-05T13:45:43.200Z,3.70
2022-08-05T13:48:58.070Z,3.90
2022-08-05T13:59:55.580Z,3.80
2022-08-05T14:02:29.877Z,3.80
2022-08-05T14:08:41.131Z,4.00
2022-08-05T14:11:20.201Z,4.20
2022-08-05T14:14:34.648Z,4.60
2022-08-05T14:17:04.825Z,4.40
2022-08-05T14:20:31.320Z,5.30
2022-08-05T14:23:00.562Z,4.50
2022-08-05T14:25:31.363Z,4.50
2022-08-05T14:28:00.097Z,4.40
2022-08-05T14:30:29.906Z,4.10
2022-08-05T14:32:59.019Z,3.60
2022-08-05T14:35:37.492Z,3.90
2022-08-05T14:38:32.093Z,4.20
2022-08-05T14:41:07.243Z,4.50
2022-08-05T14:48:33.486Z,4.00
2022-08-05T14:51:03.228Z,4.40
2022-08-05T14:53:31.968Z,3.80
2022-08-05T14:56:13.511Z,4.10
2022-08-05T14:58:47.543Z,3.90
2022-08-05T15:02:14.927Z,4.10
2022-08-05T15:04:47.936Z,4.40
2022-08-05T15:08:04.548Z,4.50
2022-08-05T15:10:46.223Z,4.20
2022-08-05T15:15:55.747Z,4.00
2022-08-05T15:19:52.877Z,4.50
2022-08-05T15:23:38.879Z,4.80
2022-08-05T15:26:08.411Z,4.50
2022-08-05T15:28:38.393Z,4.20
2022-08-05T15:31:11.975Z,4.10
2022-08-05T15:34:18.848Z,4.30
2022-08-05T15:36:38.672Z,4.60
2022-08-05T15:40:59.222Z,4.60
2022-08-05T15:41:59.098Z,4.70
2022-08-05T15:44:31.235Z,4.70
2022-08-05T15:49:53.686Z,4.60
2022-08-05T15:52:51.561Z,4.80
2022-08-05T15:55:16.678Z,4.50
2022-08-05T15:57:48.838Z,5.00
2022-08-05T16:00:26.311Z,5.10
2022-08-05T16:03:01.600Z,4.50
2022-08-05T16:05:30.983Z,4.20
2022-08-05T16:08:00.065Z,4.60
2022-08-05T16:10:28.969Z,4.70
2022-08-05T16:12:57.969Z,4.20
2022-08-05T16:15:32.709Z,4.30
2022-08-05T16:18:04.237Z,3.80
2022-08-05T16:20:41.648Z,4.10
2022-08-05T16:23:10.521Z,4.00
2022-08-05T16:28:04.948Z,3.50
2022-08-05T16:30:36.103Z,4.40
2022-08-05T16:33:05.172Z,3.60
2022-08-05T16:35:41.936Z,4.50
2022-08-05T16:38:18.448Z,4.00
2022-08-05T16:41:01.484Z,4.40
2022-08-05T16:43:34.143Z,4.10
2022-08-05T16:46:23.637Z,4.10
2022-08-05T16:48:53.456Z,4.20
2022-08-05T16:51:42.296Z,4.30
2022-08-05T16:54:17.473Z,4.30
2022-08-05T16:56:52.230Z,4.10
2022-08-05T17:01:54.203Z,4.00
2022-08-05T17:04:28.056Z,4.40
2022-08-05T17:07:01.475Z,4.70
2022-08-05T17:09:56.055Z,5.00
2022-08-05T17:12:22.735Z,4.80
2022-08-05T17:15:55.694Z,5.10
2022-08-05T17:18:36.457Z,5.10
2022-08-05T17:21:17.378Z,5.20
2022-08-05T17:24:05.035Z,5.30
2022-08-05T17:27:12.729Z,5.70
2022-08-05T17:29:45.724Z,6.80
2022-08-05T17:32:17.696Z,7.60
2022-08-05T17:37:41.005Z,7.30
2022-08-05T17:40:41.484Z,7.50
2022-08-05T17:43:11.725Z,7.20
2022-08-05T17:47:53.470Z,7.10
2022-08-05T17:52:06.301Z,7.20
2022-08-05T17:54:35.937Z,6.60
2022-08-05T17:57:05.650Z,6.80
2022-08-05T17:59:43.537Z,6.20
2022-08-05T18:02:13.255Z,7.40
2022-08-05T18:04:51.206Z,7.50
2022-08-05T18:07:22.349Z,8.80
2022-08-05T18:09:59.895Z,8.60
2022-08-05T18:12:29.384Z,8.40
2022-08-05T18:14:58.959Z,8.50
2022-08-05T18:17:59.644Z,8.40
2022-08-05T18:20:16.312Z,8.40
2022-08-05T18:22:54.765Z,10.40
2022-08-05T18:25:59.687Z,8.80
2022-08-05T18:28:28.618Z,9.00
2022-08-05T18:30:57.322Z,10.70
2022-08-05T18:33:26.051Z,8.80
2022-08-05T18:36:11.881Z,8.10
2022-08-05T18:38:44.296Z,8.50
2022-08-05T18:41:58.151Z,8.50
2022-08-05T18:44:34.907Z,8.40
2022-08-05T18:47:04.362Z,8.30
2022-08-05T18:49:57.806Z,9.00
2022-08-05T18:52:50.813Z,9.30
2022-08-05T18:55:22.249Z,9.10
2022-08-05T18:57:53.825Z,8.50
2022-08-05T19:00:29.235Z,8.70
2022-08-05T19:03:07.428Z,8.70
2022-08-05T19:06:11.915Z,10.50
2022-08-05T19:08:30.999Z,10.60
2022-08-05T19:11:04.517Z,9.40
2022-08-05T19:13:35.638Z,12.00
2022-08-05T19:16:24.421Z,10.60
2022-08-05T19:19:32.075Z,10.20
2022-08-05T19:22:03.094Z,11.40
2022-08-05T19:24:34.415Z,10.80
2022-08-05T19:27:08.286Z,14.20
2022-08-05T19:29:50.300Z,12.30
2022-08-05T19:32:19.529Z,12.40
2022-08-05T19:34:54.579Z,12.10
2022-08-05T19:37:34.847Z,12.10
2022-08-05T19:40:54.047Z,11.60
2022-08-05T19:46:16.959Z,11.60
2022-08-05T19:49:04.057Z,11.20
2022-08-05T19:52:05.328Z,10.60
2022-08-05T19:54:31.497Z,9.90
2022-08-05T19:57:11.889Z,9.70
2022-08-05T19:59:55.915Z,9.70
2022-08-05T20:03:05.511Z,9.00
2022-08-05T20:05:43.143Z,10.00
2022-08-05T20:09:13.669Z,13.70
2022-08-05T20:11:48.210Z,14.40
2022-08-05T20:14:26.562Z,13.60
2022-08-05T20:16:58.739Z,12.70
2022-08-05T20:19:36.077Z,11.10
2022-08-05T20:22:05.366Z,11.70
2022-08-05T20:24:38.527Z,11.60
2022-08-05T20:27:11.244Z,11.20
2022-08-05T20:29:40.356Z,11.30
2022-08-05T20:32:09.024Z,10.90
2022-08-05T20:34:39.026Z,10.90
2022-08-05T20:37:24.274Z,9.50
2022-08-05T20:39:58.961Z,9.90
2022-08-05T20:42:28.214Z,9.00
2022-08-05T20:44:56.972Z,10.10
2022-08-05T20:47:31.107Z,9.20
2022-08-05T20:50:02.567Z,9.40
2022-08-05T20:52:34.120Z,9.50
2022-08-05T20:55:56.341Z,8.80
2022-08-05T20:57:52.225Z,10.20
2022-08-05T21:00:41.904Z,9.60
2022-08-05T21:03:34.743Z,9.20
2022-08-05T21:06:03.642Z,9.10
2022-08-05T21:08:41.363Z,9.70
2022-08-05T21:11:15.114Z,9.70
2022-08-05T21:14:01.509Z,9.90
2022-08-05T21:16:31.034Z,9.70
2022-08-05T21:19:01.757Z,9.70
2022-08-05T21:21:39.043Z,9.80
2022-08-05T21:24:15.421Z,9.30
2022-08-05T21:26:53.345Z,10.20
2022-08-05T21:29:31.865Z,10.20
2022-08-05T21:32:04.568Z,10.70
2022-08-05T21:34:35.521Z,9.60
2022-08-05T21:37:05.337Z,9.90
2022-08-05T21:39:40.433Z,9.50
2022-08-05T21:42:30.648Z,10.10
2022-08-05T21:44:59.969Z,10.00
2022-08-05T21:47:54.984Z,10.20
2022-08-05T21:50:18.525Z,10.70
2022-08-05T21:52:47.586Z,11.50
2022-08-05T21:55:18.336Z,10.60
2022-08-05T21:58:07.306Z,10.30
2022-08-05T22:00:40.449Z,10.60
2022-08-05T22:03:15.319Z,10.80
2022-08-05T22:05:48.945Z,10.40
2022-08-05T22:08:22.059Z,10.30
2022-08-05T22:10:53.471Z,11.40
2022-08-05T22:14:34.438Z,11.70
2022-08-05T22:16:42.116Z,10.90
2022-08-05T22:18:59.412Z,10.90
2022-08-05T22:21:28.244Z,10.70
2022-08-05T22:24:40.807Z,10.30
2022-08-05T22:27:22.475Z,11.50
2022-08-05T22:29:54.122Z,10.80
2022-08-05T22:32:23.162Z,10.70
2022-08-05T22:34:52.942Z,10.20
2022-08-05T22:37:22.416Z,10.20
2022-08-05T22:39:51.159Z,10.90
2022-08-05T22:42:26.209Z,10.60
2022-08-05T22:44:56.628Z,10.40
2022-08-05T22:47:29.500Z,10.50
2022-08-05T22:50:19.178Z,10.50
2022-08-05T22:52:52.561Z,10.50
2022-08-05T22:55:23.597Z,11.50
2022-08-05T22:57:55.077Z,11.10
2022-08-05T23:00:24.603Z,10.80
2022-08-05T23:02:56.446Z,10.10
2022-08-05T23:05:27.009Z,10.20
2022-08-05T23:07:55.606Z,10.50
2022-08-05T23:10:24.458Z,10.70
2022-08-05T23:12:55.711Z,10.70
2022-08-05T23:15:35.417Z,9.80
2022-08-05T23:18:06.142Z,10.10
2022-08-05T23:20:43.148Z,10.70
2022-08-05T23:23:11.983Z,10.10
2022-08-05T23:25:52.253Z,10.90
2022-08-05T23:28:27.807Z,10.70
2022-08-05T23:31:15.869Z,10.30
2022-08-05T23:34:04.123Z,11.10
2022-08-05T23:36:39.929Z,11.30
2022-08-05T23:39:16.515Z,10.90
2022-08-05T23:41:53.891Z,11.90
2022-08-05T23:44:25.303Z,11.40
2022-08-05T23:47:14.575Z,12.40
2022-08-05T23:49:46.320Z,11.50
2022-08-05T23:52:27.743Z,10.70
2022-08-05T23:55:00.595Z,11.00
2022-08-05T23:57:30.311Z,11.80
